Time;durP1;ratioP1;P1;durP2;ratioP2;P2;SDS_P1;SDS_P2;PMS_P1;PMS_P2;Temp;Humidity;BMP_temperature;BMP_pressure;BME280_temperature;BME280_humidity;BME280_pressure;Samples;Min_cycle;Max_cycle;Signal;HPM_P1;HPM_P2
2021/08/12 00:00:47;;;;;;;7.00;5.07;;;;;;;18.04;100.00;100758.44;5094946;28;20400;-68
2021/08/12 00:03:31;;;;;;;9.13;5.07;;;;;;;18.00;100.00;100762.50;5095288;28;20466;-68
2021/08/12 00:06:15;;;;;;;9.60;5.85;;;;;;;17.93;100.00;100761.50;5094881;28;20051;-69
2021/08/12 00:08:59;;;;;;;10.00;5.38;;;;;;;17.96;100.00;100771.97;5094916;28;20116;-69
2021/08/12 00:11:44;;;;;;;9.02;5.30;;;;;;;17.91;100.00;100762.75;5095136;28;20051;-69
2021/08/12 00:14:28;;;;;;;8.60;4.93;;;;;;;17.88;100.00;100768.47;5094916;28;20050;-68
2021/08/12 00:17:12;;;;;;;7.50;4.63;;;;;;;17.87;100.00;100773.03;5095080;28;20043;-69
2021/08/12 00:19:56;;;;;;;6.07;5.13;;;;;;;17.84;100.00;100765.31;5094879;28;20516;-68
2021/08/12 00:22:40;;;;;;;9.52;5.07;;;;;;;17.81;100.00;100762.97;5093921;28;20067;-69
2021/08/12 00:25:24;;;;;;;8.50;4.90;;;;;;;17.79;100.00;100756.09;5093807;28;20067;-69
2021/08/12 00:28:08;;;;;;;7.28;5.60;;;;;;;17.74;100.00;100756.63;5093803;28;20055;-69
2021/08/12 00:30:51;;;;;;;6.90;4.80;;;;;;;17.70;100.00;100747.19;5094778;28;20119;-69
2021/08/12 00:33:35;;;;;;;7.88;5.28;;;;;;;17.67;100.00;100755.63;5094784;28;20197;-69
2021/08/12 00:36:19;;;;;;;7.45;4.85;;;;;;;17.69;100.00;100753.59;5094499;28;20055;-68
2021/08/12 00:39:03;;;;;;;6.32;5.28;;;;;;;17.68;100.00;100746.53;5094625;28;20395;-69
2021/08/12 00:41:47;;;;;;;9.05;5.03;;;;;;;17.68;100.00;100746.53;5094833;28;20073;-69
2021/08/12 00:44:31;;;;;;;8.55;5.57;;;;;;;17.60;100.00;100748.44;5093461;28;20071;-69
2021/08/12 00:47:15;;;;;;;8.77;5.68;;;;;;;17.57;100.00;100749.63;5094484;28;20043;-68
2021/08/12 00:49:59;;;;;;;9.25;4.80;;;;;;;17.52;100.00;100746.63;5093436;28;20079;-69
2021/08/12 00:52:43;;;;;;;10.55;5.90;;;;;;;17.49;100.00;100752.38;5094003;28;20500;-69
2021/08/12 00:55:27;;;;;;;8.63;5.20;;;;;;;17.46;100.00;100749.19;5092909;28;20527;-69
2021/08/12 00:58:14;;;;;;;9.73;5.63;;;;;;;17.45;100.00;100750.19;5093174;28;20413;-68
2021/08/12 01:00:59;;;;;;;6.22;4.90;;;;;;;17.43;100.00;100755.78;5094079;28;20054;-69
2021/08/12 01:03:42;;;;;;;8.50;5.18;;;;;;;17.40;100.00;100752.59;5094154;28;20416;-69
2021/08/12 01:06:46;;;;;;;8.27;5.05;;;;;;;17.38;100.00;100760.03;5093991;28;20097;-69
2021/08/12 01:09:43;;;;;;;8.00;5.43;;;;;;;17.34;100.00;100758.66;5092949;28;20035;-69
2021/08/12 01:12:38;;;;;;;7.40;4.90;;;;;;;17.33;100.00;100755.13;5093993;28;20069;-69
2021/08/12 01:15:37;;;;;;;8.55;5.38;;;;;;;17.30;100.00;100760.84;5092495;28;20042;-69
2021/08/12 01:18:46;;;;;;;6.78;4.68;;;;;;;17.31;100.00;100754.44;5092618;28;20117;-69
2021/08/12 01:21:45;;;;;;;6.03;5.35;;;;;;;17.28;100.00;100754.81;5078200;28;20051;-69
2021/08/12 01:24:33;;;;;;;7.55;5.72;;;;;;;17.26;100.00;100754.13;5092946;28;20088;-69
2021/08/12 01:27:18;;;;;;;5.78;5.15;;;;;;;17.27;100.00;100758.50;5092492;28;20092;-69
2021/08/12 01:30:07;;;;;;;7.45;4.90;;;;;;;17.26;100.00;100759.53;5092710;28;20400;-69
2021/08/12 01:33:35;;;;;;;6.65;4.68;;;;;;;17.25;100.00;100757.84;5093709;28;20093;-69
2021/08/12 01:36:20;;;;;;;8.48;5.20;;;;;;;17.23;100.00;100757.19;5051653;28;20043;-69
2021/08/12 01:39:08;;;;;;;7.75;4.88;;;;;;;17.23;100.00;100767.13;5092879;28;20203;-69
2021/08/12 01:41:53;;;;;;;6.20;5.20;;;;;;;17.20;100.00;100762.09;5078206;28;20167;-69
2021/08/12 01:44:39;;;;;;;6.60;5.00;;;;;;;17.18;100.00;100770.34;5092149;28;20078;-69
2021/08/12 01:47:26;;;;;;;8.10;5.32;;;;;;;17.13;100.00;100769.19;5092449;28;20562;-69
2021/08/12 01:50:15;;;;;;;8.30;5.40;;;;;;;17.05;100.00;100770.06;5093246;28;20089;-69
2021/08/12 01:53:01;;;;;;;6.75;5.30;;;;;;;17.04;100.00;100762.13;5093162;28;20054;-69
2021/08/12 01:55:45;;;;;;;8.50;5.25;;;;;;;17.02;100.00;100762.31;5092070;28;20510;-69
2021/08/12 01:58:30;;;;;;;7.65;4.82;;;;;;;17.01;100.00;100752.53;5092469;28;20051;-69
2021/08/12 02:01:15;;;;;;;6.43;5.10;;;;;;;16.98;100.00;100746.69;5092208;28;20039;-69
2021/08/12 02:04:00;;;;;;;5.60;4.93;;;;;;;16.96;100.00;100754.06;5092183;28;20138;-69
2021/08/12 02:06:45;;;;;;;5.70;4.43;;;;;;;16.91;100.00;100754.59;5096931;28;20051;-69
2021/08/12 02:09:29;;;;;;;6.85;4.47;;;;;;;16.87;100.00;100744.38;5096410;28;20462;-69
2021/08/12 02:12:12;;;;;;;8.40;5.57;;;;;;;16.81;100.00;100737.81;5097792;28;20424;-68
2021/08/12 02:14:56;;;;;;;5.63;4.72;;;;;;;16.79;100.00;100739.81;5097191;28;20042;-69
2021/08/12 02:17:41;;;;;;;8.20;5.05;;;;;;;16.75;100.00;100741.19;5096003;28;20047;-69
2021/08/12 02:20:25;;;;;;;7.75;4.90;;;;;;;16.72;100.00;100740.69;5095950;28;20568;-67
2021/08/12 02:23:14;;;;;;;8.88;4.82;;;;;;;16.68;100.00;100736.66;5097227;28;20558;-69
2021/08/12 02:26:19;;;;;;;8.20;5.30;;;;;;;16.64;100.00;100728.09;5096100;28;20492;-69
2021/08/12 02:29:03;;;;;;;;;;;;;;;16.62;100.00;100723.88;5096642;28;20042;-69
2021/08/12 02:31:48;;;;;;;5.90;5.18;;;;;;;16.56;100.00;100730.78;5081725;28;19919;-68
2021/08/12 02:34:33;;;;;;;8.20;5.65;;;;;;;16.53;100.00;100736.53;5096233;28;20085;-69
2021/08/12 02:37:18;;;;;;;7.40;5.43;;;;;;;16.51;100.00;100726.94;5095633;28;20523;-69
2021/08/12 02:40:03;;;;;;;6.60;5.10;;;;;;;16.47;100.00;100731.00;5095815;28;20081;-69
2021/08/12 02:42:47;;;;;;;7.88;5.50;;;;;;;16.44;100.00;100734.84;5095906;28;20066;-69
2021/08/12 02:45:32;;;;;;;7.53;5.53;;;;;;;16.42;100.00;100731.50;5095806;28;20086;-69
2021/08/12 02:48:16;;;;;;;9.20;5.15;;;;;;;16.40;100.00;100736.19;5096719;28;20059;-69
2021/08/12 02:51:00;;;;;;;9.20;5.57;;;;;;;16.40;100.00;100730.81;5081410;28;20092;-68
2021/08/12 02:53:44;;;;;;;5.00;4.50;;;;;;;16.37;100.00;100723.09;5081296;28;20078;-69
2021/08/12 02:56:29;;;;;;;8.77;4.65;;;;;;;16.36;100.00;100724.09;5095725;28;20074;-69
2021/08/12 02:59:15;;;;;;;7.97;4.82;;;;;;;16.35;100.00;100727.78;5095417;28;20566;-69
2021/08/12 03:01:59;;;;;;;6.32;4.60;;;;;;;16.33;100.00;100724.41;5095459;28;20062;-69
2021/08/12 03:04:44;;;;;;;6.95;4.75;;;;;;;16.29;100.00;100723.06;5095063;28;20082;-69
2021/08/12 03:07:28;;;;;;;6.95;5.10;;;;;;;16.27;100.00;100719.69;5095381;28;20046;-69
2021/08/12 03:10:13;;;;;;;7.07;4.75;;;;;;;16.25;100.00;100737.00;5081271;28;20093;-68
2021/08/12 03:12:59;;;;;;;8.25;4.80;;;;;;;16.20;100.00;100729.47;5095092;28;20126;-69
2021/08/12 03:15:43;;;;;;;7.93;5.50;;;;;;;16.18;100.00;100731.47;5094592;28;20128;-69
2021/08/12 03:18:28;;;;;;;7.22;5.40;;;;;;;16.15;100.00;100726.44;5094872;28;20089;-69
2021/08/12 03:21:14;;;;;;;9.60;4.68;;;;;;;16.12;100.00;100725.94;5080479;28;20067;-69
2021/08/12 03:24:04;;;;;;;5.82;4.43;;;;;;;16.11;100.00;100730.50;5095010;28;20038;-69
2021/08/12 03:26:52;;;;;;;8.98;5.40;;;;;;;16.09;100.00;100737.84;5095761;28;20109;-69
2021/08/12 03:29:38;;;;;;;8.82;5.20;;;;;;;16.07;100.00;100739.88;5096201;28;20043;-69
2021/08/12 03:32:22;;;;;;;14.00;5.70;;;;;;;16.07;100.00;100734.50;5080335;28;20089;-69
2021/08/12 03:35:06;;;;;;;7.93;4.80;;;;;;;16.07;100.00;100741.75;5095784;28;20097;-69
2021/08/12 03:37:50;;;;;;;6.70;4.70;;;;;;;16.06;100.00;100745.44;5095656;28;20134;-69
2021/08/12 03:40:34;;;;;;;7.85;4.85;;;;;;;16.07;100.00;100742.56;5095573;28;20043;-69
2021/08/12 03:43:19;;;;;;;6.72;4.35;;;;;;;16.05;100.00;100736.53;5095592;28;20046;-69
2021/08/12 03:46:03;;;;;;;9.00;4.90;;;;;;;16.05;100.00;100736.53;5095342;28;20542;-69
2021/08/12 03:48:46;;;;;;;7.78;5.00;;;;;;;16.04;100.00;100740.22;5095857;28;20135;-69
2021/08/12 03:51:31;;;;;;;7.60;5.43;;;;;;;16.02;100.00;100736.88;5095816;28;20503;-69
2021/08/12 03:54:15;;;;;;;8.55;6.10;;;;;;;16.01;100.00;100743.25;5095331;28;20051;-69
2021/08/12 03:56:59;;;;;;;8.95;5.53;;;;;;;16.01;100.00;100745.94;5095413;28;20132;-69
2021/08/12 03:59:43;;;;;;;7.78;4.70;;;;;;;16.02;100.00;100739.56;5095328;28;20105;-69
2021/08/12 04:02:27;;;;;;;8.15;4.90;;;;;;;16.03;100.00;100733.16;5094380;28;20047;-69
2021/08/12 04:05:11;;;;;;;10.23;5.82;;;;;;;16.05;100.00;100741.09;5095067;28;20494;-69
2021/08/12 04:07:55;;;;;;;7.72;5.47;;;;;;;16.09;100.00;100740.53;5093945;28;20102;-67
2021/08/12 04:10:39;;;;;;;9.25;5.60;;;;;;;16.11;100.00;100741.25;5095194;28;20085;-69
2021/08/12 04:13:23;;;;;;;7.78;5.05;;;;;;;16.12;100.00;100745.63;5095086;28;20055;-68
2021/08/12 04:16:07;;;;;;;7.85;5.15;;;;;;;16.14;100.00;100746.28;5094654;28;20136;-69
2021/08/12 04:18:51;;;;;;;10.23;5.38;;;;;;;16.12;100.00;100748.31;5094952;28;20420;-68
2021/08/12 04:21:34;;;;;;;8.10;5.03;;;;;;;16.11;100.00;100754.69;5093847;28;20055;-69
2021/08/12 04:24:19;;;;;;;7.72;5.20;;;;;;;16.10;100.00;100750.31;5094594;28;20124;-69
2021/08/12 04:27:03;;;;;;;7.85;4.72;;;;;;;16.10;100.00;100755.72;5093600;28;20557;-69
2021/08/12 04:29:47;;;;;;;6.63;5.35;;;;;;;16.12;100.00;100759.06;5094204;28;20413;-69
2021/08/12 04:32:31;;;;;;;13.68;5.28;;;;;;;16.12;100.00;100760.91;5094815;28;20043;-68
2021/08/12 04:35:15;;;;;;;6.22;4.90;;;;;;;16.09;100.00;100762.06;5094638;28;20412;-69
2021/08/12 04:37:59;;;;;;;8.25;5.50;;;;;;;16.12;100.00;100763.59;5093640;28;20104;-69
2021/08/12 04:40:43;;;;;;;10.18;5.43;;;;;;;16.16;100.00;100765.78;5094512;28;20157;-68
2021/08/12 04:43:27;;;;;;;9.32;5.50;;;;;;;16.19;100.00;100765.44;5094441;28;20054;-69
2021/08/12 04:46:14;;;;;;;6.72;4.72;;;;;;;16.23;100.00;100769.47;5094545;28;20047;-69
2021/08/12 04:48:58;;;;;;;7.45;4.53;;;;;;;16.26;100.00;100774.53;5094334;28;20466;-69
2021/08/12 04:51:44;;;;;;;8.05;4.88;;;;;;;16.28;100.00;100780.56;5094528;28;20051;-69
2021/08/12 04:54:28;;;;;;;6.82;4.63;;;;;;;16.32;100.00;100781.94;5093894;28;20101;-69
2021/08/12 04:57:12;;;;;;;10.68;5.68;;;;;;;16.37;100.00;100784.97;5093347;28;20043;-69
2021/08/12 04:59:56;;;;;;;7.05;4.93;;;;;;;16.39;100.00;100792.88;5093908;28;20092;-69
2021/08/12 05:02:40;;;;;;;7.35;4.72;;;;;;;16.41;100.00;100785.47;5092990;28;20051;-69
2021/08/12 05:05:23;;;;;;;7.40;5.20;;;;;;;16.45;100.00;100784.97;5092870;28;20065;-69
2021/08/12 05:08:07;;;;;;;6.43;5.40;;;;;;;16.51;100.00;100770.84;5094101;28;20130;-68
2021/08/12 05:10:51;;;;;;;6.68;5.45;;;;;;;16.56;100.00;100773.03;5094186;28;20050;-69
2021/08/12 05:13:35;;;;;;;;;;;;;;;16.64;100.00;100770.31;5094233;28;20093;-69
2021/08/12 05:16:20;;;;;;;10.25;6.72;;;;;;;16.68;100.00;100750.94;5093703;28;19919;-68
2021/08/12 05:19:04;;;;;;;11.20;7.18;;;;;;;16.76;100.00;100750.94;5093592;28;20055;-69
2021/08/12 05:21:47;;;;;;;11.80;7.70;;;;;;;16.84;100.00;100755.47;5093998;28;20244;-69
2021/08/12 05:24:31;;;;;;;9.93;7.97;;;;;;;16.89;100.00;100759.31;5093859;28;20554;-69
2021/08/12 05:27:15;;;;;;;8.20;6.80;;;;;;;16.93;100.00;100749.91;5093690;28;20047;-69
2021/08/12 05:30:00;;;;;;;10.35;7.55;;;;;;;16.99;100.00;100751.06;5092834;28;20447;-69
2021/08/12 05:32:44;;;;;;;8.45;7.07;;;;;;;17.04;100.00;100751.34;5092427;28;20416;-69
2021/08/12 05:35:28;;;;;;;10.18;6.78;;;;;;;17.11;100.00;100752.34;5093722;28;20047;-69
2021/08/12 05:38:13;;;;;;;9.07;7.28;;;;;;;17.16;100.00;100756.19;5093893;28;20054;-69
2021/08/12 05:40:57;;;;;;;11.18;6.88;;;;;;;17.25;100.00;100759.69;5092670;28;20054;-68
2021/08/12 05:43:41;;;;;;;10.88;7.82;;;;;;;17.31;100.00;100767.91;5093701;28;20082;-69
2021/08/12 05:46:25;;;;;;;9.82;6.53;;;;;;;17.38;100.00;100771.63;5093334;28;20101;-69
2021/08/12 05:49:10;;;;;;;8.13;6.95;;;;;;;17.47;100.00;100767.03;5093595;28;20089;-69
2021/08/12 05:51:54;;;;;;;12.32;7.50;;;;;;;17.56;100.00;100774.91;5092195;28;20127;-68
2021/08/12 05:54:37;;;;;;;11.77;7.25;;;;;;;17.68;100.00;100781.59;5093517;28;20130;-68
2021/08/12 05:57:21;;;;;;;8.88;7.13;;;;;;;17.81;100.00;100773.75;5093237;28;20428;-69
2021/08/12 06:00:06;;;;;;;9.38;7.57;;;;;;;17.94;100.00;100784.81;5093232;28;20047;-69
2021/08/12 06:02:51;;;;;;;9.73;7.82;;;;;;;18.08;100.00;100785.88;5093464;28;20135;-68
2021/08/12 06:05:36;;;;;;;11.13;7.75;;;;;;;18.23;100.00;100784.09;5093065;28;20508;-69
2021/08/12 06:08:20;;;;;;;9.48;7.22;;;;;;;18.32;100.00;100791.94;5093280;28;20142;-69
2021/08/12 06:11:05;;;;;;;11.90;7.68;;;;;;;18.42;100.00;100792.53;5093282;28;20086;-69
2021/08/12 06:13:49;;;;;;;12.48;8.10;;;;;;;18.51;100.00;100794.16;5093259;28;20047;-69
2021/08/12 06:16:33;;;;;;;9.82;7.00;;;;;;;18.62;100.00;100801.81;5092319;28;20460;-69
2021/08/12 06:19:16;;;;;;;12.02;7.63;;;;;;;18.73;100.00;100795.97;5093324;28;20401;-67
2021/08/12 06:22:00;;;;;;;13.05;7.65;;;;;;;18.86;100.00;100801.59;5093220;28;20039;-69
2021/08/12 06:24:44;;;;;;;12.85;8.43;;;;;;;18.93;100.00;100810.63;5092886;28;20500;-69
2021/08/12 06:27:28;;;;;;;10.35;7.80;;;;;;;19.02;100.00;100801.41;5093160;28;20151;-69
2021/08/12 06:30:12;;;;;;;14.35;7.57;;;;;;;19.13;100.00;100793.69;5091887;28;20047;-69
2021/08/12 06:32:57;;;;;;;19.38;8.48;;;;;;;19.27;100.00;100784.75;5091866;28;20051;-69
2021/08/12 06:35:40;;;;;;;11.65;8.10;;;;;;;19.40;100.00;100782.22;5093086;28;20046;-69
2021/08/12 06:38:24;;;;;;;10.30;7.43;;;;;;;19.54;100.00;100775.13;5093153;28;20458;-69
2021/08/12 06:41:08;;;;;;;;;;;;;;;19.68;100.00;100779.69;5093181;28;20188;-69
2021/08/12 06:43:52;;;;;;;13.20;7.25;;;;;;;19.82;100.00;100786.91;5093034;28;19927;-69
2021/08/12 06:46:37;;;;;;;19.45;8.57;;;;;;;19.88;100.00;100786.13;5092028;28;20047;-69
2021/08/12 06:49:21;;;;;;;13.55;7.47;;;;;;;19.94;100.00;100790.78;5093148;28;20086;-69
2021/08/12 06:52:05;;;;;;;11.18;6.95;;;;;;;20.00;100.00;100790.03;5094099;28;20056;-69
2021/08/12 06:54:49;;;;;;;13.30;7.35;;;;;;;20.01;100.00;100797.94;5096469;28;20055;-69
2021/08/12 06:57:33;;;;;;;10.23;7.47;;;;;;;20.02;100.00;100793.38;5096532;28;20550;-68
2021/08/12 07:00:17;;;;;;;14.43;7.75;;;;;;;20.04;100.00;100794.06;5096266;28;20136;-68
2021/08/12 07:03:02;;;;;;;10.90;7.95;;;;;;;20.04;100.00;100791.34;5095268;28;20047;-69
2021/08/12 07:05:46;;;;;;;10.07;6.70;;;;;;;20.03;100.00;100786.94;5096227;28;20070;-68
2021/08/12 07:08:30;;;;;;;13.25;8.05;;;;;;;20.03;100.00;100789.63;5096509;28;20104;-69
2021/08/12 07:11:14;;;;;;;10.80;7.25;;;;;;;20.07;100.00;100797.22;5096342;28;20043;-69
2021/08/12 07:13:58;;;;;;;13.98;7.50;;;;;;;20.13;100.00;100798.31;5096000;28;20046;-69
2021/08/12 07:16:42;;;;;;;11.27;8.35;;;;;;;20.20;100.00;100796.53;5096135;28;20055;-69
2021/08/12 07:19:26;;;;;;;18.40;8.48;;;;;;;20.31;100.00;100798.72;5096030;28;20420;-69
2021/08/12 07:22:10;;;;;;;13.70;8.80;;;;;;;20.44;100.00;100794.25;5096208;28;20476;-68
2021/08/12 07:24:54;;;;;;;15.73;9.05;;;;;;;20.48;100.00;100800.09;5095129;28;20078;-69
2021/08/12 07:27:38;;;;;;;;;;;;;;;20.53;100.00;100803.06;5096185;28;20522;-69
2021/08/12 07:30:22;;;;;;;16.30;8.68;;;;;;;20.60;100.00;100793.16;5096074;28;20287;-69
2021/08/12 07:33:06;;;;;;;;;;;;;;;20.65;100.00;100794.22;5096449;28;20130;-69
2021/08/12 07:35:50;;;;;;;11.97;8.07;;;;;;;20.74;99.83;100792.19;5094657;28;19918;-69
2021/08/12 07:38:35;;;;;;;9.73;7.20;;;;;;;20.78;99.10;100790.75;5094897;28;20368;-69
2021/08/12 07:41:19;;;;;;;10.25;6.60;;;;;;;20.83;98.65;100799.16;5095485;28;20185;-70
2021/08/12 07:44:03;;;;;;;;;;;;;;;20.90;97.94;100795.47;5095143;28;20416;-69
2021/08/12 07:46:47;;;;;;;11.35;7.22;;;;;;;20.96;96.53;100793.84;5080071;28;19919;-69
2021/08/12 07:49:31;;;;;;;;;;;;;;;21.03;94.94;100789.31;5080719;28;20047;-69
2021/08/12 07:52:15;;;;;;;9.10;7.35;;;;;;;21.14;94.72;100786.88;5094449;28;20327;-69
2021/08/12 07:54:59;;;;;;;12.27;8.32;;;;;;;21.23;91.24;100786.53;5095541;28;20109;-69
2021/08/12 07:57:43;;;;;;;13.15;7.85;;;;;;;21.35;90.59;100784.91;5095211;28;20058;-69
2021/08/12 08:00:28;;;;;;;11.52;6.93;;;;;;;21.51;90.49;100783.75;5079847;28;20132;-68
2021/08/12 08:03:12;;;;;;;13.52;7.20;;;;;;;21.66;90.08;100782.59;5093380;28;20404;-69
2021/08/12 08:05:57;;;;;;;15.00;7.75;;;;;;;21.77;88.67;100782.00;5095343;28;20096;-69
2021/08/12 08:08:41;;;;;;;10.98;7.55;;;;;;;21.89;88.60;100782.25;5094997;28;20083;-68
2021/08/12 08:11:25;;;;;;;14.07;7.75;;;;;;;22.03;87.43;100773.94;5094217;28;20047;-69
2021/08/12 08:14:09;;;;;;;11.48;7.72;;;;;;;22.24;86.70;100781.91;5094185;28;20105;-70
2021/08/12 08:16:53;;;;;;;11.18;7.55;;;;;;;22.42;85.71;100779.41;5093968;28;20140;-69
2021/08/12 08:19:37;;;;;;;14.98;7.57;;;;;;;22.68;84.69;100774.00;5094690;28;20047;-69
2021/08/12 08:22:21;;;;;;;11.52;8.02;;;;;;;22.95;83.63;100774.81;5094899;28;20069;-66
2021/08/12 08:25:06;;;;;;;10.30;6.43;;;;;;;23.15;81.06;100770.19;5093860;28;20051;-65
2021/08/12 08:27:50;;;;;;;14.65;8.55;;;;;;;23.29;79.26;100772.66;5094612;28;20046;-65
2021/08/12 08:30:36;;;;;;;10.43;6.70;;;;;;;23.41;77.79;100775.56;5094768;28;20405;-67
2021/08/12 08:33:20;;;;;;;11.30;6.85;;;;;;;23.56;77.34;100774.25;5094798;28;20134;-68
2021/08/12 08:36:04;;;;;;;10.50;7.18;;;;;;;23.66;75.56;100777.31;5094677;28;20096;-68
2021/08/12 08:38:48;;;;;;;10.48;6.72;;;;;;;23.83;75.52;100778.50;5094379;28;20048;-66
2021/08/12 08:41:32;;;;;;;10.43;7.35;;;;;;;24.06;74.64;100786.16;5094447;28;20124;-67
2021/08/12 08:44:18;;;;;;;9.85;6.80;;;;;;;24.21;75.29;100784.81;5094435;28;20075;-67
2021/08/12 08:47:06;;;;;;;11.40;7.50;;;;;;;24.44;72.59;100783.19;5094459;28;20101;-67
2021/08/12 08:49:50;;;;;;;11.18;7.45;;;;;;;24.65;70.87;100777.38;5093465;28;20043;-67
2021/08/12 08:52:35;;;;;;;8.95;6.65;;;;;;;24.93;69.76;100785.91;5093405;28;20547;-66
2021/08/12 08:55:21;;;;;;;11.23;7.25;;;;;;;25.13;69.69;100791.19;5093289;28;20055;-67
2021/08/12 08:58:05;;;;;;;10.35;7.57;;;;;;;25.32;67.56;100785.53;5094051;28;20098;-67
2021/08/12 09:00:48;;;;;;;11.43;7.47;;;;;;;25.52;66.91;100785.31;5094057;28;20046;-67
2021/08/12 09:03:32;;;;;;;;;;;;;;;25.73;66.41;100782.13;5094344;28;20047;-67
2021/08/12 09:06:16;;;;;;;12.05;7.78;;;;;;;25.87;64.72;100783.63;5093873;28;19919;-67
2021/08/12 09:09:00;;;;;;;;;;;;;;;26.04;63.71;100773.72;5093667;28;20048;-67
2021/08/12 09:11:44;;;;;;;8.85;6.63;;;;;;;26.15;63.50;100779.22;5093758;28;19935;-66
2021/08/12 09:14:35;;;;;;;9.88;6.47;;;;;;;26.32;63.55;100779.38;5093872;28;20082;-67
2021/08/12 09:17:19;;;;;;;12.20;6.88;;;;;;;26.41;62.23;100761.56;5093733;28;20105;-67
2021/08/12 09:20:05;;;;;;;;;;;;;;;26.57;62.23;100764.50;5094009;28;20071;-67
2021/08/12 09:23:04;;;;;;;10.65;7.32;;;;;;;26.52;61.78;100760.78;5093673;28;19919;-67
2021/08/12 09:25:49;;;;;;;7.65;6.47;;;;;;;26.67;63.31;100766.66;5093496;28;20087;-67
2021/08/12 09:28:33;;;;;;;8.07;6.28;;;;;;;26.74;60.00;100770.94;5093597;28;20047;-67
2021/08/12 09:31:17;;;;;;;9.98;6.60;;;;;;;26.98;59.24;100762.50;5093753;28;20109;-67
2021/08/12 09:34:11;;;;;;;;;;;;;;;27.23;59.45;100756.81;5093954;28;20097;-67
2021/08/12 09:37:05;;;;;;;12.77;6.22;;;;;;;27.41;60.30;100745.69;5092665;28;19961;-67
2021/08/12 09:40:02;;;;;;;10.40;6.22;;;;;;;27.63;60.94;100749.44;5093437;28;20070;-67
2021/08/12 09:42:57;;;;;;;10.05;6.88;;;;;;;27.83;57.05;100745.22;5093642;28;20096;-67
2021/08/12 09:45:41;;;;;;;8.55;6.20;;;;;;;27.90;56.19;100745.91;5078363;28;20139;-66
2021/08/12 09:48:27;;;;;;;;;;;;;;;28.19;57.12;100750.28;5093778;28;20050;-65
2021/08/12 09:51:11;;;;;;;9.63;6.82;;;;;;;28.35;55.76;100754.97;5092494;28;19918;-67
2021/08/12 09:54:04;;;;;;;;;;;;;;;28.64;56.25;100755.75;5093870;28;20050;-67
2021/08/12 09:56:48;;;;;;;9.43;6.22;;;;;;;29.07;56.10;100758.66;5092187;28;20399;-67
2021/08/12 09:59:33;;;;;;;11.52;6.60;;;;;;;29.48;53.96;100756.19;5093252;28;20601;-67
2021/08/12 10:02:17;;;;;;;10.93;7.45;;;;;;;29.93;50.87;100743.03;5092285;28;20495;-65
2021/08/12 10:05:06;;;;;;;11.48;6.93;;;;;;;30.41;49.15;100754.00;5093049;28;20117;-65
2021/08/12 10:07:51;;;;;;;9.43;6.43;;;;;;;31.05;49.15;100759.19;5092140;28;20504;-65
2021/08/12 10:10:38;;;;;;;9.82;5.97;;;;;;;31.70;45.81;100745.81;5092140;28;20138;-65
2021/08/12 10:13:21;;;;;;;9.50;7.18;;;;;;;32.33;45.45;100744.56;5092261;28;20486;-65
2021/08/12 10:16:06;;;;;;;10.15;6.65;;;;;;;33.11;40.90;100736.50;5091853;28;20059;-65
2021/08/12 10:18:50;;;;;;;8.25;6.20;;;;;;;34.17;39.64;100730.25;5092236;28;20078;-65
2021/08/12 10:21:39;;;;;;;10.32;6.60;;;;;;;35.28;36.51;100739.25;5093179;28;20047;-65
2021/08/12 10:24:26;;;;;;;9.65;6.25;;;;;;;36.31;35.29;100734.56;5092130;28;20054;-66
2021/08/12 10:27:12;;;;;;;14.30;6.50;;;;;;;37.20;33.41;100728.56;5095491;28;20417;-65
2021/08/12 10:29:56;;;;;;;8.10;5.90;;;;;;;38.16;32.95;100728.16;5095881;28;20089;-64
2021/08/12 10:32:45;;;;;;;7.85;5.93;;;;;;;39.07;30.89;100730.28;5095802;28;20051;-66
2021/08/12 10:35:31;;;;;;;6.03;5.38;;;;;;;40.00;28.28;100717.47;5095979;28;20089;-65
2021/08/12 10:38:15;;;;;;;7.70;5.50;;;;;;;40.07;27.08;100720.63;5095887;28;20051;-65
2021/08/12 10:40:59;;;;;;;7.68;5.78;;;;;;;40.05;26.73;100717.31;5096562;28;20105;-66
2021/08/12 10:43:45;;;;;;;10.30;5.88;;;;;;;39.92;27.69;100714.66;5096893;28;20054;-65
2021/08/12 10:46:38;;;;;;;9.38;5.93;;;;;;;40.05;27.52;100717.31;5095474;28;20078;-65
2021/08/12 10:49:25;;;;;;;10.50;5.97;;;;;;;39.87;26.90;100718.44;5096877;28;20046;-63
2021/08/12 10:52:11;;;;;;;8.52;5.97;;;;;;;40.00;27.04;100714.66;5096780;28;20047;-65
2021/08/12 10:55:17;;;;;;;9.43;5.97;;;;;;;39.90;28.19;100714.97;5095520;28;20082;-65
2021/08/12 10:58:25;;;;;;;8.45;6.20;;;;;;;40.60;27.40;100695.13;5096644;28;20090;-65
2021/08/12 11:01:12;;;;;;;6.57;5.80;;;;;;;41.02;27.25;100692.22;5096526;28;20125;-65
2021/08/12 11:04:01;;;;;;;7.88;6.22;;;;;;;41.23;26.53;100698.69;5095180;28;20063;-66
2021/08/12 11:06:46;;;;;;;11.05;5.95;;;;;;;41.12;26.90;100689.03;5096356;28;20093;-66
2021/08/12 11:09:56;;;;;;;7.28;6.10;;;;;;;40.98;26.54;100696.84;5081044;28;20180;-65
2021/08/12 11:12:53;;;;;;;6.80;5.70;;;;;;;41.01;26.67;100703.75;5096573;28;20097;-65
2021/08/12 11:15:36;;;;;;;7.55;5.30;;;;;;;41.37;26.27;100696.53;5095790;28;20047;-65
2021/08/12 11:18:41;;;;;;;9.20;5.85;;;;;;;42.12;23.70;100696.38;5096267;28;20051;-66
2021/08/12 11:21:31;;;;;;;7.00;5.88;;;;;;;42.19;23.41;100690.19;5094893;28;20047;-66
2021/08/12 11:24:24;;;;;;;8.63;6.40;;;;;;;41.79;24.77;100691.81;5096157;28;20105;-66
2021/08/12 11:27:08;;;;;;;9.05;6.15;;;;;;;40.99;25.39;100687.28;5096143;28;20050;-65
2021/08/12 11:29:52;;;;;;;7.65;5.97;;;;;;;41.08;24.80;100693.69;5096058;28;20133;-65
2021/08/12 11:32:36;;;;;;;6.68;5.97;;;;;;;41.77;24.12;100691.34;5095952;28;20381;-65
2021/08/12 11:35:20;;;;;;;6.68;5.95;;;;;;;42.05;23.23;100687.66;5095840;28;20055;-65
2021/08/12 11:38:04;;;;;;;5.82;5.22;;;;;;;42.76;22.28;100691.94;5095504;28;20055;-65
2021/08/12 11:40:48;;;;;;;6.47;5.70;;;;;;;43.37;22.62;100685.25;5094443;28;20512;-66
2021/08/12 11:43:33;;;;;;;6.90;6.07;;;;;;;43.77;21.87;100689.00;5094793;28;20050;-65
2021/08/12 11:46:18;;;;;;;8.55;5.95;;;;;;;43.94;21.70;100678.28;5094345;28;20052;-66
2021/08/12 11:49:03;;;;;;;7.82;6.13;;;;;;;43.05;22.68;100677.75;5094567;28;20397;-66
2021/08/12 11:51:47;;;;;;;9.15;5.38;;;;;;;43.03;22.60;100677.28;5080021;28;20047;-66
2021/08/12 11:54:31;;;;;;;6.63;5.93;;;;;;;42.94;22.77;100676.56;5095561;28;20094;-66
2021/08/12 11:57:14;;;;;;;8.07;6.43;;;;;;;42.76;23.50;100669.50;5095486;28;20070;-65
2021/08/12 12:00:06;;;;;;;9.95;6.35;;;;;;;43.01;22.77;100674.03;5095039;28;20086;-65
2021/08/12 12:02:52;;;;;;;10.93;6.93;;;;;;;43.58;23.47;100675.53;5095364;28;20504;-65
2021/08/12 12:05:38;;;;;;;17.63;7.78;;;;;;;43.20;22.17;100675.06;5094240;28;20124;-66
2021/08/12 12:08:27;;;;;;;14.90;7.15;;;;;;;43.56;22.39;100682.69;5095574;28;20086;-66
2021/08/12 12:11:12;;;;;;;9.30;6.50;;;;;;;43.93;22.22;100676.66;5095308;28;20074;-65
2021/08/12 12:14:02;;;;;;;9.20;6.40;;;;;;;44.66;20.97;100671.56;5095272;28;20047;-65
2021/08/12 12:17:08;;;;;;;9.82;6.63;;;;;;;45.28;20.67;100674.44;5094869;28;20078;-66
2021/08/12 12:20:09;;;;;;;10.25;6.15;;;;;;;45.80;20.04;100672.06;5095240;28;20550;-66
2021/08/12 12:23:17;;;;;;;13.43;6.88;;;;;;;45.86;19.55;100667.78;5093995;28;20047;-65
2021/08/12 12:26:03;;;;;;;10.25;6.50;;;;;;;45.80;19.75;100658.81;5094616;28;20089;-66
2021/08/12 12:28:50;;;;;;;11.23;6.20;;;;;;;46.36;19.72;100662.84;5093889;28;20047;-64
2021/08/12 12:31:34;;;;;;;8.80;5.90;;;;;;;46.98;18.86;100656.78;5094779;28;20141;-66
2021/08/12 12:34:18;;;;;;;6.85;6.00;;;;;;;47.26;18.54;100663.69;5094510;28;20176;-66
2021/08/12 12:37:02;;;;;;;7.63;6.93;;;;;;;47.64;18.08;100660.69;5094437;28;20078;-66
2021/08/12 12:39:46;;;;;;;7.97;7.20;;;;;;;47.83;17.47;100666.22;5094224;28;20094;-66
2021/08/12 12:42:32;;;;;;;7.10;6.43;;;;;;;47.91;16.92;100665.13;5093751;28;20063;-66
2021/08/12 12:45:16;;;;;;;9.25;6.47;;;;;;;47.26;17.52;100663.69;5093149;28;20055;-65
2021/08/12 12:48:09;;;;;;;9.05;6.75;;;;;;;47.69;17.01;100659.56;5094183;28;20047;-66